sensor_id;sensor_type;location;lat;lon;timestamp;pressure;altitude;pressure_sealevel;temperature;humidity
12247;BME280;6186;52.022;4.692;2023-11-19T00:01:01;100876.00;;;14.06;100.00
12247;BME280;6186;52.022;4.692;2023-11-19T00:03:27;100874.28;;;14.05;100.00
12247;BME280;6186;52.022;4.692;2023-11-19T00:05:52;100875.25;;;14.03;100.00
12247;BME280;6186;52.022;4.692;2023-11-19T00:08:17;100877.91;;;14.03;100.00
12247;BME280;6186;52.022;4.692;2023-11-19T00:10:42;100882.31;;;14.02;100.00
12247;BME280;6186;52.022;4.692;2023-11-19T00:13:08;100887.69;;;14.01;100.00
12247;BME280;6186;52.022;4.692;2023-11-19T00:15:33;100878.88;;;14.00;100.00
12247;BME280;6186;52.022;4.692;2023-11-19T00:17:58;100902.69;;;14.00;100.00
12247;BME280;6186;52.022;4.692;2023-11-19T00:20:24;100894.72;;;14.02;100.00
12247;BME280;6186;52.022;4.692;2023-11-19T00:22:49;100906.22;;;14.01;100.00
12247;BME280;6186;52.022;4.692;2023-11-19T00:25:14;100905.31;;;14.02;100.00
12247;BME280;6186;52.022;4.692;2023-11-19T00:27:40;100906.22;;;14.01;100.00
12247;BME280;6186;52.022;4.692;2023-11-19T00:30:06;100895.63;;;14.01;100.00
12247;BME280;6186;52.022;4.692;2023-11-19T00:32:32;100885.97;;;14.00;100.00
12247;BME280;6186;52.022;4.692;2023-11-19T00:34:57;100884.31;;;13.97;100.00
12247;BME280;6186;52.022;4.692;2023-11-19T00:37:23;100878.09;;;13.98;100.00
12247;BME280;6186;52.022;4.692;2023-11-19T00:39:48;100882.53;;;13.98;100.00
12247;BME280;6186;52.022;4.692;2023-11-19T00:42:13;100878.19;;;13.95;100.00
12247;BME280;6186;52.022;4.692;2023-11-19T00:44:38;100884.47;;;13.93;100.00
12247;BME280;6186;52.022;4.692;2023-11-19T00:47:03;100880.16;;;13.90;100.00
12247;BME280;6186;52.022;4.692;2023-11-19T00:49:29;100865.25;;;13.88;100.00
12247;BME280;6186;52.022;4.692;2023-11-19T00:51:54;100869.81;;;13.84;100.00
12247;BME280;6186;52.022;4.692;2023-11-19T00:54:19;100874.97;;;13.87;100.00
12247;BME280;6186;52.022;4.692;2023-11-19T00:56:44;100864.59;;;13.83;100.00
12247;BME280;6186;52.022;4.692;2023-11-19T00:59:10;100853.81;;;13.87;100.00
12247;BME280;6186;52.022;4.692;2023-11-19T01:01:35;100863.56;;;13.87;100.00
12247;BME280;6186;52.022;4.692;2023-11-19T01:04:00;100861.81;;;13.86;100.00
12247;BME280;6186;52.022;4.692;2023-11-19T01:06:30;100865.41;;;13.85;100.00
12247;BME280;6186;52.022;4.692;2023-11-19T01:08:56;100853.94;;;13.84;100.00
12247;BME280;6186;52.022;4.692;2023-11-19T01:11:21;100852.25;;;13.82;100.00
12247;BME280;6186;52.022;4.692;2023-11-19T01:13:47;100837.56;;;13.75;100.00
12247;BME280;6186;52.022;4.692;2023-11-19T01:16:13;100848.00;;;13.78;100.00
12247;BME280;6186;52.022;4.692;2023-11-19T01:18:39;100850.78;;;13.75;100.00
12247;BME280;6186;52.022;4.692;2023-11-19T01:21:04;100846.53;;;13.71;100.00
12247;BME280;6186;52.022;4.692;2023-11-19T01:23:30;100846.66;;;13.68;100.00
12247;BME280;6186;52.022;4.692;2023-11-19T01:25:55;100856.44;;;13.66;100.00
12247;BME280;6186;52.022;4.692;2023-11-19T01:28:20;100840.66;;;13.63;100.00
12247;BME280;6186;52.022;4.692;2023-11-19T01:30:45;100846.06;;;13.60;100.00
12247;BME280;6186;52.022;4.692;2023-11-19T01:33:11;100852.28;;;13.59;100.00
12247;BME280;6186;52.022;4.692;2023-11-19T01:35:36;100859.41;;;13.57;100.00
12247;BME280;6186;52.022;4.692;2023-11-19T01:38:01;100843.78;;;13.51;100.00
12247;BME280;6186;52.022;4.692;2023-11-19T01:40:26;100856.13;;;13.50;100.00
12247;BME280;6186;52.022;4.692;2023-11-19T01:42:51;100861.47;;;13.49;100.00
12247;BME280;6186;52.022;4.692;2023-11-19T01:45:37;100861.56;;;13.46;100.00
12247;BME280;6186;52.022;4.692;2023-11-19T01:48:03;100852.81;;;13.44;100.00
12247;BME280;6186;52.022;4.692;2023-11-19T01:50:30;100862.66;;;13.40;100.00
12247;BME280;6186;52.022;4.692;2023-11-19T01:52:56;100856.53;;;13.40;100.00
12247;BME280;6186;52.022;4.692;2023-11-19T01:55:23;100853.09;;;13.36;100.00
12247;BME280;6186;52.022;4.692;2023-11-19T01:57:49;100844.50;;;13.31;100.00
12247;BME280;6186;52.022;4.692;2023-11-19T02:00:16;100841.09;;;13.28;100.00
12247;BME280;6186;52.022;4.692;2023-11-19T02:02:44;100849.97;;;13.27;100.00
12247;BME280;6186;52.022;4.692;2023-11-19T02:05:11;100857.88;;;13.27;100.00
12247;BME280;6186;52.022;4.692;2023-11-19T02:07:36;100861.50;;;13.24;100.00
12247;BME280;6186;52.022;4.692;2023-11-19T02:10:02;100878.25;;;13.23;100.00
12247;BME280;6186;52.022;4.692;2023-11-19T02:12:27;100879.25;;;13.20;100.00
12247;BME280;6186;52.022;4.692;2023-11-19T02:14:53;100895.19;;;13.17;100.00
12247;BME280;6186;52.022;4.692;2023-11-19T02:17:30;100878.44;;;13.18;100.00
12247;BME280;6186;52.022;4.692;2023-11-19T02:19:56;100882.91;;;13.16;100.00
12247;BME280;6186;52.022;4.692;2023-11-19T02:22:22;100886.47;;;13.15;100.00
12247;BME280;6186;52.022;4.692;2023-11-19T02:24:49;100877.03;;;13.08;100.00
12247;BME280;6186;52.022;4.692;2023-11-19T02:27:28;100891.88;;;13.12;100.00
12247;BME280;6186;52.022;4.692;2023-11-19T02:29:56;100875.25;;;13.09;100.00
12247;BME280;6186;52.022;4.692;2023-11-19T02:32:21;100880.47;;;13.10;100.00
12247;BME280;6186;52.022;4.692;2023-11-19T02:34:47;100884.06;;;13.09;100.00
12247;BME280;6186;52.022;4.692;2023-11-19T02:37:12;100876.22;;;13.06;100.00
12247;BME280;6186;52.022;4.692;2023-11-19T02:39:37;100858.81;;;12.99;100.00
12247;BME280;6186;52.022;4.692;2023-11-19T02:42:02;100867.47;;;13.04;100.00
12247;BME280;6186;52.022;4.692;2023-11-19T02:44:28;100867.53;;;13.03;100.00
12247;BME280;6186;52.022;4.692;2023-11-19T02:46:53;100873.81;;;12.99;100.00
12247;BME280;6186;52.022;4.692;2023-11-19T02:49:18;100865.88;;;12.99;100.00
12247;BME280;6186;52.022;4.692;2023-11-19T02:51:43;100856.25;;;12.96;100.00
12247;BME280;6186;52.022;4.692;2023-11-19T02:54:09;100841.41;;;12.94;100.00
12247;BME280;6186;52.022;4.692;2023-11-19T02:56:34;100832.19;;;12.81;100.00
12247;BME280;6186;52.022;4.692;2023-11-19T02:58:59;100848.56;;;12.90;100.00
12247;BME280;6186;52.022;4.692;2023-11-19T03:01:25;100857.41;;;12.89;100.00
12247;BME280;6186;52.022;4.692;2023-11-19T03:03:50;100863.69;;;12.85;100.00
12247;BME280;6186;52.022;4.692;2023-11-19T03:06:15;100860.22;;;12.85;100.00
12247;BME280;6186;52.022;4.692;2023-11-19T03:08:41;100865.53;;;12.83;100.00
12247;BME280;6186;52.022;4.692;2023-11-19T03:11:06;100848.16;;;12.76;100.00
12247;BME280;6186;52.022;4.692;2023-11-19T03:13:31;100855.97;;;12.79;100.00
12247;BME280;6186;52.022;4.692;2023-11-19T03:15:56;100852.56;;;12.77;100.00
12247;BME280;6186;52.022;4.692;2023-11-19T03:18:22;100857.03;;;12.75;100.00
12247;BME280;6186;52.022;4.692;2023-11-19T03:20:47;100848.28;;;12.73;100.00
12247;BME280;6186;52.022;4.692;2023-11-19T03:23:12;100835.22;;;12.69;100.00
12247;BME280;6186;52.022;4.692;2023-11-19T03:25:38;100832.66;;;12.67;100.00
12247;BME280;6186;52.022;4.692;2023-11-19T03:28:03;100816.94;;;12.63;100.00
12247;BME280;6186;52.022;4.692;2023-11-19T03:30:29;100836.19;;;12.66;100.00
12247;BME280;6186;52.022;4.692;2023-11-19T03:32:56;100816.13;;;12.61;100.00
12247;BME280;6186;52.022;4.692;2023-11-19T03:35:22;100824.81;;;12.64;100.00
12247;BME280;6186;52.022;4.692;2023-11-19T03:37:47;100833.66;;;12.63;100.00
12247;BME280;6186;52.022;4.692;2023-11-19T03:40:12;100853.00;;;12.64;100.00
12247;BME280;6186;52.022;4.692;2023-11-19T03:42:38;100861.84;;;12.63;100.00
12247;BME280;6186;52.022;4.692;2023-11-19T03:45:03;100855.72;;;12.62;100.00
12247;BME280;6186;52.022;4.692;2023-11-19T03:47:28;100849.56;;;12.62;100.00
12247;BME280;6186;52.022;4.692;2023-11-19T03:49:54;100849.56;;;12.62;100.00
12247;BME280;6186;52.022;4.692;2023-11-19T03:52:19;100849.63;;;12.60;100.00
12247;BME280;6186;52.022;4.692;2023-11-19T03:54:45;100843.41;;;12.61;100.00
12247;BME280;6186;52.022;4.692;2023-11-19T03:57:10;100846.97;;;12.60;100.00
12247;BME280;6186;52.022;4.692;2023-11-19T03:59:35;100842.75;;;12.55;100.00
12247;BME280;6186;52.022;4.692;2023-11-19T04:02:01;100854.91;;;12.59;100.00
12247;BME280;6186;52.022;4.692;2023-11-19T04:04:26;100852.34;;;12.57;100.00
12247;BME280;6186;52.022;4.692;2023-11-19T04:06:52;100855.84;;;12.58;100.00
12247;BME280;6186;52.022;4.692;2023-11-19T04:09:17;100865.66;;;12.54;100.00
12247;BME280;6186;52.022;4.692;2023-11-19T04:11:42;100871.81;;;12.55;100.00
12247;BME280;6186;52.022;4.692;2023-11-19T04:14:07;100860.44;;;12.53;100.00
12247;BME280;6186;52.022;4.692;2023-11-19T04:16:33;100873.66;;;12.51;100.00
12247;BME280;6186;52.022;4.692;2023-11-19T04:18:58;100863.31;;;12.45;100.00
12247;BME280;6186;52.022;4.692;2023-11-19T04:21:23;100857.94;;;12.48;100.00
12247;BME280;6186;52.022;4.692;2023-11-19T04:23:49;100865.03;;;12.46;100.00
12247;BME280;6186;52.022;4.692;2023-11-19T04:26:14;100852.78;;;12.44;100.00
12247;BME280;6186;52.022;4.692;2023-11-19T04:28:39;100861.63;;;12.43;100.00
12247;BME280;6186;52.022;4.692;2023-11-19T04:31:04;100860.81;;;12.41;100.00
12247;BME280;6186;52.022;4.692;2023-11-19T04:33:30;100864.34;;;12.40;100.00
12247;BME280;6186;52.022;4.692;2023-11-19T04:35:55;100866.22;;;12.38;100.00
12247;BME280;6186;52.022;4.692;2023-11-19T04:38:20;100870.63;;;12.37;100.00
12247;BME280;6186;52.022;4.692;2023-11-19T04:40:45;100869.75;;;12.37;100.00
12247;BME280;6186;52.022;4.692;2023-11-19T04:43:10;100862.78;;;12.34;100.00
12247;BME280;6186;52.022;4.692;2023-11-19T04:45:36;100862.78;;;12.34;100.00
12247;BME280;6186;52.022;4.692;2023-11-19T04:48:01;100862.78;;;12.34;100.00
12247;BME280;6186;52.022;4.692;2023-11-19T04:50:26;100868.09;;;12.32;100.00
12247;BME280;6186;52.022;4.692;2023-11-19T04:52:51;100866.34;;;12.33;100.00
12247;BME280;6186;52.022;4.692;2023-11-19T04:55:16;100862.81;;;12.32;100.00
12247;BME280;6186;52.022;4.692;2023-11-19T04:57:42;100874.25;;;12.33;100.00
12247;BME280;6186;52.022;4.692;2023-11-19T05:00:07;100875.16;;;12.32;100.00
12247;BME280;6186;52.022;4.692;2023-11-19T05:02:34;100875.16;;;12.32;100.00
12247;BME280;6186;52.022;4.692;2023-11-19T05:04:59;100865.53;;;12.31;100.00
12247;BME280;6186;52.022;4.692;2023-11-19T05:07:24;100873.44;;;12.31;100.00
12247;BME280;6186;52.022;4.692;2023-11-19T05:09:50;100869.03;;;12.32;100.00
12247;BME280;6186;52.022;4.692;2023-11-19T05:12:15;100876.09;;;12.31;100.00
12247;BME280;6186;52.022;4.692;2023-11-19T05:14:40;100872.56;;;12.30;100.00
12247;BME280;6186;52.022;4.692;2023-11-19T05:17:05;100870.00;;;12.29;100.00
12247;BME280;6186;52.022;4.692;2023-11-19T05:19:31;100872.69;;;12.27;100.00
12247;BME280;6186;52.022;4.692;2023-11-19T05:21:56;100872.69;;;12.27;100.00
12247;BME280;6186;52.022;4.692;2023-11-19T05:24:21;100859.50;;;12.27;100.00
12247;BME280;6186;52.022;4.692;2023-11-19T05:26:46;100870.09;;;12.26;100.00
12247;BME280;6186;52.022;4.692;2023-11-19T05:29:11;100867.47;;;12.26;100.00
12247;BME280;6186;52.022;4.692;2023-11-19T05:31:37;100859.53;;;12.26;100.00
12247;BME280;6186;52.022;4.692;2023-11-19T05:34:02;100872.75;;;12.26;100.00
12247;BME280;6186;52.022;4.692;2023-11-19T05:36:27;100867.47;;;12.26;100.00
12247;BME280;6186;52.022;4.692;2023-11-19T05:38:52;100878.84;;;12.26;100.00
12247;BME280;6186;52.022;4.692;2023-11-19T05:41:17;100885.94;;;12.26;100.00
12247;BME280;6186;52.022;4.692;2023-11-19T05:43:43;100889.41;;;12.26;100.00
12247;BME280;6186;52.022;4.692;2023-11-19T05:46:08;100893.84;;;12.26;100.00
12247;BME280;6186;52.022;4.692;2023-11-19T05:48:33;100887.69;;;12.25;100.00
12247;BME280;6186;52.022;4.692;2023-11-19T05:50:58;100880.69;;;12.24;100.00
12247;BME280;6186;52.022;4.692;2023-11-19T05:53:24;100888.59;;;12.24;100.00
12247;BME280;6186;52.022;4.692;2023-11-19T05:55:49;100877.38;;;12.18;100.00
12247;BME280;6186;52.022;4.692;2023-11-19T05:58:14;100871.09;;;12.22;100.00
12247;BME280;6186;52.022;4.692;2023-11-19T06:00:39;100876.47;;;12.19;100.00
12247;BME280;6186;52.022;4.692;2023-11-19T06:03:05;100876.56;;;12.16;100.00
12247;BME280;6186;52.022;4.692;2023-11-19T06:05:30;100888.00;;;12.16;100.00
12247;BME280;6186;52.022;4.692;2023-11-19T06:07:55;100887.13;;;12.16;100.00
12247;BME280;6186;52.022;4.692;2023-11-19T06:10:20;100864.25;;;12.15;100.00
12247;BME280;6186;52.022;4.692;2023-11-19T06:12:46;100874.03;;;12.13;100.00
12247;BME280;6186;52.022;4.692;2023-11-19T06:15:11;100868.75;;;12.13;100.00
12247;BME280;6186;52.022;4.692;2023-11-19T06:17:36;100861.09;;;12.04;100.00
12247;BME280;6186;52.022;4.692;2023-11-19T06:20:01;100865.31;;;12.11;100.00
12247;BME280;6186;52.022;4.692;2023-11-19T06:22:27;100875.84;;;12.11;100.00
12247;BME280;6186;52.022;4.692;2023-11-19T06:24:52;100857.56;;;12.05;100.00
12247;BME280;6186;52.022;4.692;2023-11-19T06:27:17;100873.41;;;12.05;100.00
12247;BME280;6186;52.022;4.692;2023-11-19T06:29:42;100886.53;;;12.06;100.00
12247;BME280;6186;52.022;4.692;2023-11-19T06:32:07;100886.53;;;12.06;100.00
12247;BME280;6186;52.022;4.692;2023-11-19T06:34:33;100892.69;;;12.07;100.00
12247;BME280;6186;52.022;4.692;2023-11-19T06:36:58;100900.59;;;12.07;100.00
12247;BME280;6186;52.022;4.692;2023-11-19T06:39:23;100894.44;;;12.06;100.00
12247;BME280;6186;52.022;4.692;2023-11-19T06:41:48;100899.66;;;12.08;100.00
12247;BME280;6186;52.022;4.692;2023-11-19T06:44:14;100903.19;;;12.08;100.00
12247;BME280;6186;52.022;4.692;2023-11-19T06:46:39;100895.28;;;12.08;100.00
12247;BME280;6186;52.022;4.692;2023-11-19T06:49:05;100893.63;;;12.04;100.00
12247;BME280;6186;52.022;4.692;2023-11-19T06:51:30;100903.28;;;12.05;100.00
12247;BME280;6186;52.022;4.692;2023-11-19T06:53:55;100911.09;;;12.08;100.00
12247;BME280;6186;52.022;4.692;2023-11-19T06:56:22;100911.22;;;12.05;100.00
12247;BME280;6186;52.022;4.692;2023-11-19T06:58:47;100918.16;;;12.08;100.00
12247;BME280;6186;52.022;4.692;2023-11-19T07:01:13;100913.78;;;12.07;100.00
12247;BME280;6186;52.022;4.692;2023-11-19T07:03:38;100916.38;;;12.08;100.00
12247;BME280;6186;52.022;4.692;2023-11-19T07:06:04;100919.00;;;12.08;100.00
12247;BME280;6186;52.022;4.692;2023-11-19T07:08:29;100899.78;;;12.05;100.00
12247;BME280;6186;52.022;4.692;2023-11-19T07:10:54;100924.06;;;12.16;100.00
12247;BME280;6186;52.022;4.692;2023-11-19T07:13:20;100924.88;;;12.18;100.00
12247;BME280;6186;52.022;4.692;2023-11-19T07:15:45;100925.69;;;12.20;100.00
12247;BME280;6186;52.022;4.692;2023-11-19T07:18:10;100919.56;;;12.19;100.00
12247;BME280;6186;52.022;4.692;2023-11-19T07:20:35;100912.34;;;12.24;100.00
12247;BME280;6186;52.022;4.692;2023-11-19T07:23:01;100910.69;;;12.22;100.00
12247;BME280;6186;52.022;4.692;2023-11-19T07:25:26;100928.97;;;12.28;100.00
12247;BME280;6186;52.022;4.692;2023-11-19T07:27:52;100899.03;;;12.29;100.00
12247;BME280;6186;52.022;4.692;2023-11-19T07:30:17;100903.41;;;12.30;100.00
12247;BME280;6186;52.022;4.692;2023-11-19T07:32:42;100906.94;;;12.29;100.00
12247;BME280;6186;52.022;4.692;2023-11-19T07:35:07;100920.09;;;12.30;100.00
12247;BME280;6186;52.022;4.692;2023-11-19T07:37:33;100907.75;;;12.31;100.00
12247;BME280;6186;52.022;4.692;2023-11-19T07:39:58;100915.63;;;12.32;100.00
12247;BME280;6186;52.022;4.692;2023-11-19T07:42:23;100918.22;;;12.34;100.00
12247;BME280;6186;52.022;4.692;2023-11-19T07:44:48;100916.38;;;12.36;100.00
12247;BME280;6186;52.022;4.692;2023-11-19T07:47:13;100916.38;;;12.36;100.00
12247;BME280;6186;52.022;4.692;2023-11-19T07:49:39;100903.25;;;12.35;100.00
12247;BME280;6186;52.022;4.692;2023-11-19T07:52:04;100907.47;;;12.40;100.00
12247;BME280;6186;52.022;4.692;2023-11-19T07:54:29;100912.69;;;12.42;100.00
12247;BME280;6186;52.022;4.692;2023-11-19T07:56:55;100913.56;;;12.42;100.00
12247;BME280;6186;52.022;4.692;2023-11-19T07:59:20;100913.56;;;12.42;100.00
12247;BME280;6186;52.022;4.692;2023-11-19T08:01:45;100927.56;;;12.44;100.00
12247;BME280;6186;52.022;4.692;2023-11-19T08:04:10;100918.78;;;12.44;100.00
12247;BME280;6186;52.022;4.692;2023-11-19T08:06:35;100917.88;;;12.45;100.00
12247;BME280;6186;52.022;4.692;2023-11-19T08:09:01;100926.63;;;12.47;100.00
12247;BME280;6186;52.022;4.692;2023-11-19T08:11:26;100929.28;;;12.47;100.00
12247;BME280;6186;52.022;4.692;2023-11-19T08:13:51;100930.09;;;12.49;100.00
12247;BME280;6186;52.022;4.692;2023-11-19T08:16:16;100929.16;;;12.50;100.00
12247;BME280;6186;52.022;4.692;2023-11-19T08:18:43;100932.63;;;12.52;100.00
12247;BME280;6186;52.022;4.692;2023-11-19T08:21:08;100937.84;;;12.53;100.00
12247;BME280;6186;52.022;4.692;2023-11-19T08:23:33;100939.47;;;12.57;100.00
12247;BME280;6186;52.022;4.692;2023-11-19T08:25:59;100944.69;;;12.60;100.00
12247;BME280;6186;52.022;4.692;2023-11-19T08:28:24;100931.38;;;12.63;100.00
12247;BME280;6186;52.022;4.692;2023-11-19T08:30:49;100933.91;;;12.66;100.00
12247;BME280;6186;52.022;4.692;2023-11-19T08:33:14;100929.44;;;12.68;100.00
12247;BME280;6186;52.022;4.692;2023-11-19T08:35:39;100932.88;;;12.70;100.00
12247;BME280;6186;52.022;4.692;2023-11-19T08:38:05;100931.00;;;12.74;100.00
12247;BME280;6186;52.022;4.692;2023-11-19T08:40:30;100931.81;;;12.76;100.00
12247;BME280;6186;52.022;4.692;2023-11-19T08:42:55;100927.28;;;12.79;100.00
12247;BME280;6186;52.022;4.692;2023-11-19T08:45:21;100928.09;;;12.81;100.00
12247;BME280;6186;52.022;4.692;2023-11-19T08:47:46;100926.34;;;12.82;100.00
12247;BME280;6186;52.022;4.692;2023-11-19T08:50:11;100934.00;;;12.89;100.00
12247;BME280;6186;52.022;4.692;2023-11-19T08:52:37;100935.66;;;12.93;100.00
12247;BME280;6186;52.022;4.692;2023-11-19T08:55:04;100932.09;;;12.94;100.00
12247;BME280;6186;52.022;4.692;2023-11-19T08:57:29;100922.31;;;12.96;100.00
12247;BME280;6186;52.022;4.692;2023-11-19T08:59:54;100927.56;;;12.98;100.00
12247;BME280;6186;52.022;4.692;2023-11-19T09:02:20;100936.25;;;13.01;100.00
12247;BME280;6186;52.022;4.692;2023-11-19T09:04:45;100921.19;;;13.05;100.00
12247;BME280;6186;52.022;4.692;2023-11-19T09:07:10;100928.91;;;13.11;100.00
12247;BME280;6186;52.022;4.692;2023-11-19T09:09:35;100928.72;;;13.17;100.00
12247;BME280;6186;52.022;4.692;2023-11-19T09:12:01;100930.09;;;13.27;100.00
12247;BME280;6186;52.022;4.692;2023-11-19T09:14:26;100927.94;;;13.38;100.00
12247;BME280;6186;52.022;4.692;2023-11-19T09:16:52;100927.66;;;13.47;100.00
12247;BME280;6186;52.022;4.692;2023-11-19T09:19:17;100931.78;;;13.54;100.00
12247;BME280;6186;52.022;4.692;2023-11-19T09:21:43;100944.94;;;13.56;100.00
12247;BME280;6186;52.022;4.692;2023-11-19T09:24:08;100934.44;;;13.54;100.00
12247;BME280;6186;52.022;4.692;2023-11-19T09:26:33;100940.81;;;13.49;100.00
12247;BME280;6186;52.022;4.692;2023-11-19T09:28:58;100935.59;;;13.46;100.00
12247;BME280;6186;52.022;4.692;2023-11-19T09:31:24;100933.22;;;13.40;100.00
12247;BME280;6186;52.022;4.692;2023-11-19T09:33:49;100933.22;;;13.40;100.00
12247;BME280;6186;52.022;4.692;2023-11-19T09:36:14;100928.81;;;13.39;100.00
12247;BME280;6186;52.022;4.692;2023-11-19T09:38:43;100924.47;;;13.38;100.00
12247;BME280;6186;52.022;4.692;2023-11-19T09:41:09;100928.81;;;13.39;100.00
12247;BME280;6186;52.022;4.692;2023-11-19T09:43:35;100940.94;;;13.44;100.00
12247;BME280;6186;52.022;4.692;2023-11-19T09:46:04;100920.34;;;13.54;100.00
12247;BME280;6186;52.022;4.692;2023-11-19T09:48:30;100926.09;;;13.65;100.00
12247;BME280;6186;52.022;4.692;2023-11-19T09:50:56;100920.59;;;13.71;100.00
12247;BME280;6186;52.022;4.692;2023-11-19T09:53:21;100937.00;;;13.80;100.00
12247;BME280;6186;52.022;4.692;2023-11-19T09:55:46;100920.03;;;13.86;100.00
12247;BME280;6186;52.022;4.692;2023-11-19T09:58:12;100931.25;;;13.92;100.00
12247;BME280;6186;52.022;4.692;2023-11-19T10:00:39;100927.59;;;13.95;100.00
12247;BME280;6186;52.022;4.692;2023-11-19T10:03:07;100930.16;;;13.98;100.00
12247;BME280;6186;52.022;4.692;2023-11-19T10:05:34;100916.94;;;13.98;100.00
12247;BME280;6186;52.022;4.692;2023-11-19T10:08:01;100922.91;;;14.03;100.00
12247;BME280;6186;52.022;4.692;2023-11-19T10:10:26;100920.19;;;14.04;100.00
12247;BME280;6186;52.022;4.692;2023-11-19T10:12:52;100922.81;;;14.06;100.00
12247;BME280;6186;52.022;4.692;2023-11-19T10:15:21;100929.94;;;14.04;100.00
12247;BME280;6186;52.022;4.692;2023-11-19T10:17:46;100927.84;;;14.12;100.00
12247;BME280;6186;52.022;4.692;2023-11-19T10:20:12;100919.44;;;14.24;100.00
12247;BME280;6186;52.022;4.692;2023-11-19T10:22:37;100926.25;;;14.31;100.00
12247;BME280;6186;52.022;4.692;2023-11-19T10:25:03;100924.84;;;14.44;100.00
12247;BME280;6186;52.022;4.692;2023-11-19T10:27:28;100912.72;;;14.60;100.00
12247;BME280;6186;52.022;4.692;2023-11-19T10:29:53;100911.72;;;14.84;100.00
12247;BME280;6186;52.022;4.692;2023-11-19T10:32:18;100916.91;;;15.07;100.00
12247;BME280;6186;52.022;4.692;2023-11-19T10:34:44;100903.25;;;15.37;100.00
12247;BME280;6186;52.022;4.692;2023-11-19T10:37:09;100897.28;;;15.72;100.00
12247;BME280;6186;52.022;4.692;2023-11-19T10:39:52;100903.63;;;16.25;100.00
12247;BME280;6186;52.022;4.692;2023-11-19T10:42:17;100906.84;;;16.69;100.00
12247;BME280;6186;52.022;4.692;2023-11-19T10:44:43;100913.69;;;16.91;100.00
12247;BME280;6186;52.022;4.692;2023-11-19T10:47:09;100917.97;;;16.94;100.00
12247;BME280;6186;52.022;4.692;2023-11-19T10:49:35;100904.50;;;16.80;100.00
12247;BME280;6186;52.022;4.692;2023-11-19T10:52:01;100912.44;;;16.63;100.00
12247;BME280;6186;52.022;4.692;2023-11-19T10:54:30;100899.81;;;16.49;100.00
12247;BME280;6186;52.022;4.692;2023-11-19T10:56:59;100899.28;;;16.41;100.00
12247;BME280;6186;52.022;4.692;2023-11-19T10:59:28;100908.06;;;16.25;100.00
12247;BME280;6186;52.022;4.692;2023-11-19T11:01:56;100911.09;;;15.98;100.00
12247;BME280;6186;52.022;4.692;2023-11-19T11:04:23;100907.81;;;15.73;100.00
12247;BME280;6186;52.022;4.692;2023-11-19T11:06:49;100904.72;;;15.64;100.00
12247;BME280;6186;52.022;4.692;2023-11-19T11:09:16;100911.09;;;15.60;100.00
12247;BME280;6186;52.022;4.692;2023-11-19T11:11:46;100908.16;;;15.66;100.00
12247;BME280;6186;52.022;4.692;2023-11-19T11:14:13;100892.41;;;15.63;100.00
12247;BME280;6186;52.022;4.692;2023-11-19T11:16:42;100898.63;;;15.62;100.00
12247;BME280;6186;52.022;4.692;2023-11-19T11:19:08;100889.75;;;15.63;100.00
12247;BME280;6186;52.022;4.692;2023-11-19T11:21:35;100893.19;;;15.65;100.00
12247;BME280;6186;52.022;4.692;2023-11-19T11:30:09;100884.00;;;15.53;100.00
12247;BME280;6186;52.022;4.692;2023-11-19T11:32:51;100888.56;;;15.50;100.00
12247;BME280;6186;52.022;4.692;2023-11-19T11:35:30;100878.78;;;15.50;100.00
12247;BME280;6186;52.022;4.692;2023-11-19T11:38:07;100882.41;;;15.49;100.00
12247;BME280;6186;52.022;4.692;2023-11-19T11:40:32;100888.91;;;15.99;100.00
12247;BME280;6186;52.022;4.692;2023-11-19T11:42:58;100892.91;;;16.45;100.00
12247;BME280;6186;52.022;4.692;2023-11-19T11:45:49;100880.41;;;17.34;100.00
12247;BME280;6186;52.022;4.692;2023-11-19T11:48:17;100883.38;;;18.11;100.00
12247;BME280;6186;52.022;4.692;2023-11-19T11:50:49;100894.59;;;18.94;100.00
12247;BME280;6186;52.022;4.692;2023-11-19T11:53:19;100889.91;;;19.27;100.00
12247;BME280;6186;52.022;4.692;2023-11-19T11:58:13;100895.50;;;19.52;100.00
12247;BME280;6186;52.022;4.692;2023-11-19T12:00:39;100883.88;;;19.39;100.00
12247;BME280;6186;52.022;4.692;2023-11-19T12:03:07;100871.41;;;19.24;100.00
12247;BME280;6186;52.022;4.692;2023-11-19T12:05:38;100868.63;;;19.55;100.00
12247;BME280;6186;52.022;4.692;2023-11-19T12:08:06;100867.00;;;19.95;100.00
12247;BME280;6186;52.022;4.692;2023-11-19T12:10:54;100872.59;;;20.32;100.00
12247;BME280;6186;52.022;4.692;2023-11-19T12:13:19;100879.38;;;20.38;100.00
12247;BME280;6186;52.022;4.692;2023-11-19T12:18:31;100864.34;;;19.23;100.00
12247;BME280;6186;52.022;4.692;2023-11-19T12:20:58;100864.88;;;18.39;100.00
12247;BME280;6186;52.022;4.692;2023-11-19T12:23:23;100871.06;;;17.77;100.00
12247;BME280;6186;52.022;4.692;2023-11-19T12:25:49;100856.88;;;17.27;100.00
12247;BME280;6186;52.022;4.692;2023-11-19T12:28:15;100852.13;;;16.99;100.00
12247;BME280;6186;52.022;4.692;2023-11-19T12:30:40;100854.50;;;16.69;100.00
12247;BME280;6186;52.022;4.692;2023-11-19T12:33:10;100860.38;;;16.40;100.00
12247;BME280;6186;52.022;4.692;2023-11-19T12:35:43;100854.31;;;16.20;100.00
12247;BME280;6186;52.022;4.692;2023-11-19T12:38:27;100854.25;;;16.02;100.00
12247;BME280;6186;52.022;4.692;2023-11-19T12:41:07;100853.03;;;15.91;100.00
12247;BME280;6186;52.022;4.692;2023-11-19T12:43:32;100861.47;;;15.80;100.00
12247;BME280;6186;52.022;4.692;2023-11-19T12:45:58;100847.84;;;15.69;100.00
12247;BME280;6186;52.022;4.692;2023-11-19T12:48:23;100860.59;;;15.61;100.00
12247;BME280;6186;52.022;4.692;2023-11-19T12:50:58;100877.97;;;15.50;100.00
12247;BME280;6186;52.022;4.692;2023-11-19T12:53:24;100872.22;;;15.39;100.00
12247;BME280;6186;52.022;4.692;2023-11-19T12:55:51;100865.63;;;15.29;100.00